Time;durP1;ratioP1;P1;durP2;ratioP2;P2;SDS_P1;SDS_P2;PMS_P1;PMS_P2;Temp;Humidity;BMP_temperature;BMP_pressure;BME280_temperature;BME280_humidity;BME280_pressure;Samples;Min_cycle;Max_cycle;Signal;HPM_P1;HPM_P2
2021/09/12 00:02:17;;;;;;;7.75;5.10;;;;;;;;;;1882108;76;21028;-50
2021/09/12 00:04:45;;;;;;;8.95;5.10;;;;;;;;;;1882259;76;21024;-50
2021/09/12 00:07:14;;;;;;;7.70;5.35;;;;;;;;;;1882205;76;21177;-47
2021/09/12 00:09:43;;;;;;;9.93;6.17;;;;;;;;;;1882526;76;21090;-49
2021/09/12 00:12:12;;;;;;;12.55;6.12;;;;;;;;;;1882345;75;21040;-49
2021/09/12 00:14:40;;;;;;;5.85;4.50;;;;;;;;;;1882352;76;21040;-50
2021/09/12 00:17:09;;;;;;;5.37;4.28;;;;;;;;;;1882376;76;21008;-50
2021/09/12 00:19:38;;;;;;;7.50;4.53;;;;;;;;;;1882396;76;21040;-47
2021/09/12 00:22:06;;;;;;;5.50;4.58;;;;;;;;;;1882223;75;21086;-48
2021/09/12 00:24:35;;;;;;;9.63;4.75;;;;;;;;;;1882328;75;21041;-49
2021/09/12 00:27:04;;;;;;;5.75;4.45;;;;;;;;;;1882195;76;21079;-47
2021/09/12 00:29:32;;;;;;;7.78;4.72;;;;;;;;;;1882249;76;21028;-50
2021/09/12 00:32:01;;;;;;;6.08;4.85;;;;;;;;;;1882354;76;21033;-46
2021/09/12 00:34:30;;;;;;;6.00;3.90;;;;;;;;;;1882251;76;21020;-49
2021/09/12 00:36:59;;;;;;;8.18;4.65;;;;;;;;;;1882305;76;21044;-50
2021/09/12 00:39:29;;;;;;;9.63;4.75;;;;;;;;;;1882295;75;21048;-48
2021/09/12 00:41:58;;;;;;;8.45;5.30;;;;;;;;;;1882329;76;21036;-48
2021/09/12 00:44:27;;;;;;;17.07;5.87;;;;;;;;;;1882343;76;21009;-49
2021/09/12 00:46:55;;;;;;;18.27;5.22;;;;;;;;;;1882228;76;21008;-49
2021/09/12 00:49:24;;;;;;;24.47;5.80;;;;;;;;;;1882349;76;21137;-49
2021/09/12 00:51:53;;;;;;;18.87;6.40;;;;;;;;;;1878921;76;21056;-48
2021/09/12 00:54:22;;;;;;;33.08;6.58;;;;;;;;;;1872768;77;21037;-50
2021/09/12 00:56:51;;;;;;;19.85;5.78;;;;;;;;;;1872778;77;21041;-47
2021/09/12 00:59:21;;;;;;;67.90;7.78;;;;;;;;;;1872908;77;21291;-48
2021/09/12 01:01:49;;;;;;;19.32;5.85;;;;;;;;;;1872865;77;21028;-48
2021/09/12 01:04:18;;;;;;;19.82;6.95;;;;;;;;;;1872776;75;21581;-50
2021/09/12 01:06:47;;;;;;;10.78;5.62;;;;;;;;;;1872811;77;21080;-47
2021/09/12 01:09:17;;;;;;;10.30;5.33;;;;;;;;;;1872859;77;21087;-47
2021/09/12 01:11:46;;;;;;;12.25;4.95;;;;;;;;;;1872874;77;21548;-49
2021/09/12 01:14:15;;;;;;;8.98;5.70;;;;;;;;;;1872892;77;21194;-46
2021/09/12 01:16:43;;;;;;;24.70;6.00;;;;;;;;;;1872744;76;21017;-47
2021/09/12 01:19:12;;;;;;;9.38;5.50;;;;;;;;;;1872863;76;21021;-46
2021/09/12 01:21:41;;;;;;;6.25;5.65;;;;;;;;;;1872882;76;21041;-50
2021/09/12 01:24:11;;;;;;;8.00;5.35;;;;;;;;;;1872731;77;21111;-48
2021/09/12 01:26:39;;;;;;;8.43;5.33;;;;;;;;;;1872848;76;21094;-49
2021/09/12 01:29:08;;;;;;;7.22;4.97;;;;;;;;;;1872770;76;21045;-47
2021/09/12 01:31:37;;;;;;;7.10;4.72;;;;;;;;;;1872864;76;21040;-47
2021/09/12 01:34:06;;;;;;;7.12;5.58;;;;;;;;;;1872825;76;21041;-49
2021/09/12 01:36:35;;;;;;;6.80;4.90;;;;;;;;;;1872848;77;21057;-47
2021/09/12 01:39:05;;;;;;;5.65;4.80;;;;;;;;;;1872814;77;21096;-47
2021/09/12 01:41:34;;;;;;;7.70;4.70;;;;;;;;;;1872773;77;21138;-48
2021/09/12 01:44:04;;;;;;;4.67;4.17;;;;;;;;;;1872778;77;21037;-47
2021/09/12 01:46:33;;;;;;;7.10;4.42;;;;;;;;;;1872770;75;21037;-49
2021/09/12 01:49:03;;;;;;;7.95;4.85;;;;;;;;;;1872783;77;21025;-49
2021/09/12 01:51:31;;;;;;;5.15;4.20;;;;;;;;;;1872696;76;21040;-47
2021/09/12 01:54:00;;;;;;;6.03;4.60;;;;;;;;;;1872888;77;21106;-48
2021/09/12 01:56:29;;;;;;;5.00;4.30;;;;;;;;;;1873011;77;21033;-46
2021/09/12 01:58:58;;;;;;;5.40;3.67;;;;;;;;;;1872716;77;21111;-46
2021/09/12 02:01:27;;;;;;;5.87;4.28;;;;;;;;;;1872750;77;21044;-48
2021/09/12 02:03:56;;;;;;;4.97;4.47;;;;;;;;;;1872750;77;21048;-47
2021/09/12 02:06:25;;;;;;;7.42;4.75;;;;;;;;;;1872742;77;21091;-47
2021/09/12 02:08:54;;;;;;;6.70;4.78;;;;;;;;;;1872726;77;21941;-46
2021/09/12 02:11:22;;;;;;;5.33;3.80;;;;;;;;;;1872776;76;21107;-47
2021/09/12 02:13:51;;;;;;;4.30;3.90;;;;;;;;;;1872987;76;21103;-47
2021/09/12 02:16:21;;;;;;;7.12;4.65;;;;;;;;;;1872822;77;21036;-47
2021/09/12 02:18:50;;;;;;;4.42;4.03;;;;;;;;;;1872968;77;21095;-47
2021/09/12 02:21:18;;;;;;;6.60;4.12;;;;;;;;;;1872735;77;21036;-48
2021/09/12 02:23:47;;;;;;;5.58;4.67;;;;;;;;;;1872758;77;21040;-49
2021/09/12 02:26:16;;;;;;;6.20;4.80;;;;;;;;;;1872792;77;21045;-49
2021/09/12 02:28:45;;;;;;;10.35;5.00;;;;;;;;;;1872727;76;21080;-46
2021/09/12 02:31:13;;;;;;;5.78;4.67;;;;;;;;;;1872832;77;21028;-46
2021/09/12 02:33:42;;;;;;;7.20;5.03;;;;;;;;;;1872851;77;21017;-46
2021/09/12 02:36:11;;;;;;;4.83;4.22;;;;;;;;;;1872747;77;21111;-46
2021/09/12 02:38:40;;;;;;;5.97;5.33;;;;;;;;;;1872847;77;21107;-49
2021/09/12 02:41:09;;;;;;;6.78;5.42;;;;;;;;;;1872922;77;21118;-49
2021/09/12 02:43:39;;;;;;;5.83;5.28;;;;;;;;;;1872824;77;21114;-48
2021/09/12 02:46:09;;;;;;;7.30;4.70;;;;;;;;;;1872777;77;21564;-47
2021/09/12 02:48:38;;;;;;;7.35;4.28;;;;;;;;;;1872726;77;21009;-46
2021/09/12 02:51:06;;;;;;;5.60;4.65;;;;;;;;;;1872726;76;21044;-47
2021/09/12 02:53:35;;;;;;;7.28;5.17;;;;;;;;;;1872758;76;21123;-47
2021/09/12 02:56:04;;;;;;;6.50;5.40;;;;;;;;;;1872739;75;21088;-49
2021/09/12 02:58:33;;;;;;;8.90;5.33;;;;;;;;;;1872736;77;21059;-48
2021/09/12 03:01:02;;;;;;;7.37;5.08;;;;;;;;;;1872801;77;21041;-46
2021/09/12 03:03:31;;;;;;;7.92;5.58;;;;;;;;;;1872803;77;21024;-48
2021/09/12 03:06:00;;;;;;;6.55;5.35;;;;;;;;;;1872703;77;21131;-49
2021/09/12 03:08:28;;;;;;;10.78;5.53;;;;;;;;;;1872804;75;21017;-48
2021/09/12 03:10:57;;;;;;;8.90;5.50;;;;;;;;;;1872808;77;21032;-46
2021/09/12 03:13:26;;;;;;;10.68;6.00;;;;;;;;;;1872773;77;21026;-49
2021/09/12 03:15:55;;;;;;;6.95;5.10;;;;;;;;;;1872703;76;21021;-49
2021/09/12 03:18:24;;;;;;;7.33;5.33;;;;;;;;;;1872710;77;21078;-48
2021/09/12 03:20:53;;;;;;;8.08;5.05;;;;;;;;;;1872746;77;21102;-49
2021/09/12 03:23:22;;;;;;;8.90;5.33;;;;;;;;;;1872684;77;21017;-46
2021/09/12 03:25:51;;;;;;;7.40;4.80;;;;;;;;;;1872709;77;21041;-49
2021/09/12 03:28:19;;;;;;;9.85;5.45;;;;;;;;;;1872690;77;21048;-46
2021/09/12 03:30:48;;;;;;;6.03;4.95;;;;;;;;;;1872689;76;21107;-48
2021/09/12 03:33:17;;;;;;;9.85;4.35;;;;;;;;;;1872690;77;21103;-48
2021/09/12 03:35:46;;;;;;;7.22;5.10;;;;;;;;;;1872708;77;21036;-49
2021/09/12 03:38:14;;;;;;;6.28;4.92;;;;;;;;;;1872807;77;21072;-50
2021/09/12 03:40:43;;;;;;;7.62;4.40;;;;;;;;;;1872761;76;21053;-47
2021/09/12 03:43:12;;;;;;;9.70;5.17;;;;;;;;;;1872678;77;21041;-49
2021/09/12 03:45:41;;;;;;;8.20;4.97;;;;;;;;;;1872649;77;21096;-50
2021/09/12 03:48:09;;;;;;;7.42;4.40;;;;;;;;;;1872784;77;21009;-45
2021/09/12 03:50:38;;;;;;;10.10;4.22;;;;;;;;;;1872758;77;21099;-50
2021/09/12 03:53:07;;;;;;;5.83;4.28;;;;;;;;;;1872694;77;21120;-46
2021/09/12 03:55:35;;;;;;;7.28;4.25;;;;;;;;;;1872805;77;21044;-50
2021/09/12 03:58:04;;;;;;;6.62;4.72;;;;;;;;;;1872783;77;21159;-48
2021/09/12 04:00:33;;;;;;;7.90;4.78;;;;;;;;;;1872739;77;21098;-47
2021/09/12 04:03:02;;;;;;;6.80;3.62;;;;;;;;;;1872721;76;21045;-48
2021/09/12 04:05:31;;;;;;;8.95;4.53;;;;;;;;;;1872666;77;21048;-46
2021/09/12 04:08:00;;;;;;;7.35;5.60;;;;;;;;;;1872699;77;21048;-50
2021/09/12 04:10:29;;;;;;;6.83;5.22;;;;;;;;;;1872642;77;21101;-48
2021/09/12 04:12:59;;;;;;;7.15;5.10;;;;;;;;;;1872771;77;21106;-47
2021/09/12 04:15:28;;;;;;;7.47;4.33;;;;;;;;;;1872669;77;21475;-48
2021/09/12 04:17:57;;;;;;;7.03;4.47;;;;;;;;;;1872904;75;21049;-49
2021/09/12 04:20:26;;;;;;;6.72;5.05;;;;;;;;;;1872673;76;21049;-47
2021/09/12 04:22:54;;;;;;;6.97;4.92;;;;;;;;;;1872657;77;21080;-47
2021/09/12 04:25:23;;;;;;;6.90;5.05;;;;;;;;;;1872570;77;21045;-47
2021/09/12 04:27:52;;;;;;;18.85;14.83;;;;;;;;;;1872765;77;21045;-47
2021/09/12 04:30:21;;;;;;;6.30;5.70;;;;;;;;;;1872679;77;21127;-48
2021/09/12 04:32:50;;;;;;;8.75;5.35;;;;;;;;;;1872687;77;21044;-47
2021/09/12 04:35:19;;;;;;;7.72;4.92;;;;;;;;;;1872724;77;21087;-47
2021/09/12 04:37:48;;;;;;;6.40;4.70;;;;;;;;;;1872653;77;21017;-47
2021/09/12 04:40:16;;;;;;;6.85;5.25;;;;;;;;;;1872659;77;21020;-47
2021/09/12 04:42:45;;;;;;;9.70;5.87;;;;;;;;;;1872628;77;21045;-49
2021/09/12 04:45:14;;;;;;;7.75;5.55;;;;;;;;;;1872664;76;21099;-46
2021/09/12 04:47:43;;;;;;;8.78;6.22;;;;;;;;;;1872649;77;21110;-46
2021/09/12 04:50:12;;;;;;;11.55;6.78;;;;;;;;;;1872787;77;21613;-48
2021/09/12 04:52:40;;;;;;;8.50;5.12;;;;;;;;;;1872854;76;21111;-48
2021/09/12 04:55:09;;;;;;;7.67;6.15;;;;;;;;;;1881880;76;21052;-46
2021/09/12 04:57:39;;;;;;;10.30;5.90;;;;;;;;;;1882281;76;21044;-46
2021/09/12 05:00:08;;;;;;;9.63;6.00;;;;;;;;;;1882349;76;21037;-45
2021/09/12 05:02:36;;;;;;;9.58;6.30;;;;;;;;;;1882198;76;21040;-49
2021/09/12 05:05:06;;;;;;;12.07;5.55;;;;;;;;;;1882145;76;21145;-46
2021/09/12 05:07:34;;;;;;;11.00;7.00;;;;;;;;;;1882220;75;21085;-46
2021/09/12 05:10:03;;;;;;;8.68;6.53;;;;;;;;;;1882188;76;21040;-48
2021/09/12 05:12:32;;;;;;;8.40;6.58;;;;;;;;;;1882273;76;21118;-48
2021/09/12 05:15:01;;;;;;;13.95;8.18;;;;;;;;;;1882182;76;21044;-48
2021/09/12 05:17:30;;;;;;;10.85;8.65;;;;;;;;;;1882408;76;21135;-46
2021/09/12 05:19:59;;;;;;;17.65;8.35;;;;;;;;;;1882246;76;21098;-47
2021/09/12 05:22:28;;;;;;;11.48;6.58;;;;;;;;;;1882234;76;21118;-46
2021/09/12 05:24:56;;;;;;;12.47;11.15;;;;;;;;;;1882227;76;21046;-47
2021/09/12 05:27:25;;;;;;;15.25;8.63;;;;;;;;;;1882139;75;21138;-46
2021/09/12 05:29:54;;;;;;;10.10;7.10;;;;;;;;;;1882229;76;21036;-47
2021/09/12 05:32:23;;;;;;;12.60;7.60;;;;;;;;;;1882126;76;21048;-47
2021/09/12 05:34:51;;;;;;;13.28;7.47;;;;;;;;;;1882224;76;21088;-46
2021/09/12 05:37:20;;;;;;;7.35;6.65;;;;;;;;;;1882321;76;21040;-46
2021/09/12 05:39:49;;;;;;;11.30;7.60;;;;;;;;;;1882232;76;21102;-47
2021/09/12 05:42:18;;;;;;;14.70;10.28;;;;;;;;;;1882219;76;21044;-47
2021/09/12 05:44:47;;;;;;;17.75;10.55;;;;;;;;;;1882166;75;21040;-46
2021/09/12 05:47:15;;;;;;;15.65;10.80;;;;;;;;;;1882220;75;21064;-48
2021/09/12 05:49:44;;;;;;;21.48;11.08;;;;;;;;;;1882256;76;21044;-46
2021/09/12 05:52:14;;;;;;;16.52;10.63;;;;;;;;;;1882322;76;21511;-47
2021/09/12 05:54:42;;;;;;;16.77;9.68;;;;;;;;;;1882235;76;21060;-46
2021/09/12 05:57:11;;;;;;;14.60;9.98;;;;;;;;;;1882198;76;21020;-46
2021/09/12 05:59:40;;;;;;;14.18;9.15;;;;;;;;;;1882370;76;21017;-46
2021/09/12 06:02:09;;;;;;;12.13;8.50;;;;;;;;;;1882307;76;21094;-46
2021/09/12 06:04:38;;;;;;;12.15;8.38;;;;;;;;;;1882267;76;21095;-47
2021/09/12 06:07:07;;;;;;;11.05;7.97;;;;;;;;;;1882221;76;21029;-47
2021/09/12 06:09:35;;;;;;;10.45;7.80;;;;;;;;;;1882195;76;21040;-47
2021/09/12 06:12:05;;;;;;;11.22;8.08;;;;;;;;;;1882197;76;21010;-47
2021/09/12 06:14:33;;;;;;;14.40;8.25;;;;;;;;;;1882256;76;21044;-46
2021/09/12 06:17:05;;;;;;;11.15;8.18;;;;;;;;;;1882181;76;21048;-47
2021/09/12 06:19:34;;;;;;;13.83;8.58;;;;;;;;;;1882210;76;21470;-48
2021/09/12 06:22:03;;;;;;;11.90;7.35;;;;;;;;;;1882259;76;21032;-46
2021/09/12 06:24:32;;;;;;;18.55;10.63;;;;;;;;;;1882296;76;21016;-47
2021/09/12 06:27:01;;;;;;;18.27;11.22;;;;;;;;;;1882184;76;21017;-47
2021/09/12 06:29:30;;;;;;;19.98;10.85;;;;;;;;;;1882189;76;21102;-47
2021/09/12 06:31:59;;;;;;;21.55;10.48;;;;;;;;;;1882320;76;21138;-46
2021/09/12 06:34:27;;;;;;;23.22;13.08;;;;;;;;;;1882284;76;21028;-48
2021/09/12 06:36:56;;;;;;;28.90;15.18;;;;;;;;;;1882213;76;21100;-49
2021/09/12 06:39:25;;;;;;;25.57;12.18;;;;;;;;;;1882314;76;21064;-47
2021/09/12 06:41:54;;;;;;;19.42;10.63;;;;;;;;;;1882194;76;21399;-46
2021/09/12 06:44:23;;;;;;;17.87;9.98;;;;;;;;;;1882236;75;21095;-48
2021/09/12 06:46:52;;;;;;;19.42;10.18;;;;;;;;;;1882108;76;21040;-46
2021/09/12 06:49:21;;;;;;;18.02;10.00;;;;;;;;;;1882176;76;21020;-46
2021/09/12 06:51:50;;;;;;;15.78;8.55;;;;;;;;;;1882200;76;21017;-45
2021/09/12 06:54:18;;;;;;;16.57;8.40;;;;;;;;;;1879903;75;21056;-49
2021/09/12 06:56:47;;;;;;;16.48;7.35;;;;;;;;;;1872800;77;21029;-46
2021/09/12 06:59:16;;;;;;;12.13;6.53;;;;;;;;;;1872784;77;21076;-47
2021/09/12 07:01:45;;;;;;;8.93;6.58;;;;;;;;;;1872811;76;21087;-47
2021/09/12 07:04:13;;;;;;;10.60;6.25;;;;;;;;;;1872691;77;21017;-47
2021/09/12 07:06:42;;;;;;;10.00;6.22;;;;;;;;;;1872630;77;21036;-49
2021/09/12 07:09:11;;;;;;;9.73;6.67;;;;;;;;;;1872820;75;21029;-45
2021/09/12 07:11:40;;;;;;;13.65;6.97;;;;;;;;;;1872819;77;21072;-50
2021/09/12 07:14:08;;;;;;;12.23;6.35;;;;;;;;;;1872703;76;20997;-49
2021/09/12 07:16:37;;;;;;;12.25;7.03;;;;;;;;;;1872654;76;21146;-47
2021/09/12 07:19:08;;;;;;;21.37;10.03;;;;;;;;;;1872736;76;21122;-49
2021/09/12 07:21:36;;;;;;;27.32;11.95;;;;;;;;;;1872684;77;21118;-45
2021/09/12 07:24:05;;;;;;;20.08;10.45;;;;;;;;;;1872744;76;21048;-50
2021/09/12 07:26:34;;;;;;;19.85;9.55;;;;;;;;;;1872685;76;21024;-46
2021/09/12 07:29:03;;;;;;;17.37;9.05;;;;;;;;;;1872742;76;21049;-49
2021/09/12 07:31:32;;;;;;;21.35;9.83;;;;;;;;;;1872818;77;21136;-47
2021/09/12 07:34:02;;;;;;;16.52;9.68;;;;;;;;;;1872814;77;21029;-47
2021/09/12 07:36:31;;;;;;;15.93;8.60;;;;;;;;;;1872782;77;21025;-47
2021/09/12 07:39:00;;;;;;;16.00;8.30;;;;;;;;;;1872763;77;21029;-47
2021/09/12 07:41:28;;;;;;;22.73;10.43;;;;;;;;;;1872653;77;21013;-47
2021/09/12 07:43:57;;;;;;;22.67;11.95;;;;;;;;;;1872669;77;21017;-49
2021/09/12 07:46:26;;;;;;;19.77;10.13;;;;;;;;;;1872653;76;21017;-49
2021/09/12 07:48:55;;;;;;;22.60;11.68;;;;;;;;;;1872792;75;21059;-48
2021/09/12 07:51:24;;;;;;;23.52;10.98;;;;;;;;;;1872648;77;21025;-46
2021/09/12 07:53:53;;;;;;;23.47;11.80;;;;;;;;;;1872709;77;21013;-49
2021/09/12 07:56:22;;;;;;;21.97;12.50;;;;;;;;;;1881103;76;21044;-48
2021/09/12 07:58:51;;;;;;;24.40;11.38;;;;;;;;;;1882266;75;21059;-48
2021/09/12 08:01:20;;;;;;;23.90;12.10;;;;;;;;;;1882236;75;21032;-50
2021/09/12 08:03:49;;;;;;;18.98;10.18;;;;;;;;;;1882174;75;21044;-49
2021/09/12 08:06:17;;;;;;;24.63;12.78;;;;;;;;;;1882165;75;21036;-50
2021/09/12 08:08:46;;;;;;;24.75;10.72;;;;;;;;;;1882071;76;21153;-48
2021/09/12 08:11:15;;;;;;;20.65;10.98;;;;;;;;;;1882066;76;21040;-49
2021/09/12 08:13:44;;;;;;;19.02;10.13;;;;;;;;;;1882228;76;21041;-50
2021/09/12 08:16:13;;;;;;;21.42;11.22;;;;;;;;;;1882362;76;21032;-49
2021/09/12 08:18:41;;;;;;;15.93;9.80;;;;;;;;;;1882295;75;21123;-49
2021/09/12 08:21:10;;;;;;;26.20;14.40;;;;;;;;;;1882249;76;21106;-47
2021/09/12 08:23:39;;;;;;;18.50;10.65;;;;;;;;;;1882208;76;21107;-50
2021/09/12 08:26:08;;;;;;;20.48;10.65;;;;;;;;;;1882297;75;21016;-48
2021/09/12 08:28:37;;;;;;;11.75;6.97;;;;;;;;;;1882401;76;21032;-49
2021/09/12 08:31:06;;;;;;;13.40;7.62;;;;;;;;;;1882274;76;21096;-48
2021/09/12 08:33:35;;;;;;;13.80;8.28;;;;;;;;;;1882000;76;21036;-49
2021/09/12 08:36:04;;;;;;;12.25;8.18;;;;;;;;;;1881736;76;21040;-47
2021/09/12 08:38:33;;;;;;;9.30;5.67;;;;;;;;;;1882146;76;21025;-48
2021/09/12 08:41:01;;;;;;;7.00;4.45;;;;;;;;;;1882319;75;21032;-46
2021/09/12 08:43:30;;;;;;;9.53;5.25;;;;;;;;;;1882315;76;21036;-47
2021/09/12 08:45:59;;;;;;;8.18;5.17;;;;;;;;;;1882315;76;21036;-47
2021/09/12 08:48:28;;;;;;;11.57;6.40;;;;;;;;;;1882409;76;21032;-48
2021/09/12 08:50:57;;;;;;;6.45;4.67;;;;;;;;;;1882314;76;21041;-50
2021/09/12 08:53:25;;;;;;;5.05;3.72;;;;;;;;;;1882261;76;21068;-46
2021/09/12 08:55:55;;;;;;;5.40;4.15;;;;;;;;;;1882196;76;21143;-48
2021/09/12 08:58:25;;;;;;;5.17;3.40;;;;;;;;;;1882364;75;21041;-49
2021/09/12 09:00:54;;;;;;;4.03;3.60;;;;;;;;;;1882185;76;21094;-49
2021/09/12 09:03:23;;;;;;;4.17;3.77;;;;;;;;;;1882301;75;21106;-46
2021/09/12 09:05:52;;;;;;;4.67;4.08;;;;;;;;;;1882202;76;21020;-48
2021/09/12 09:08:21;;;;;;;4.15;3.75;;;;;;;;;;1882146;76;21020;-50
2021/09/12 09:10:53;;;;;;;5.15;3.98;;;;;;;;;;1882319;76;21114;-49
2021/09/12 09:13:25;;;;;;;4.47;3.42;;;;;;;;;;1882334;76;21107;-49
2021/09/12 09:15:54;;;;;;;5.22;4.25;;;;;;;;;;1882049;76;21117;-50
2021/09/12 09:18:36;;;;;;;3.65;3.35;;;;;;;;;;1882342;76;21004;-48
2021/09/12 09:21:24;;;;;;;3.90;3.40;;;;;;;;;;1882122;76;21020;-48
2021/09/12 09:24:11;;;;;;;3.60;3.17;;;;;;;;;;1882300;76;21475;-49
2021/09/12 09:26:41;;;;;;;5.42;4.12;;;;;;;;;;1882188;76;21102;-50
2021/09/12 09:29:09;;;;;;;4.53;4.12;;;;;;;;;;1882348;76;21028;-49
2021/09/12 09:31:38;;;;;;;4.00;3.37;;;;;;;;;;1882208;76;21356;-47
2021/09/12 09:34:15;;;;;;;3.80;3.40;;;;;;;;;;1882258;76;21126;-49
2021/09/12 09:36:43;;;;;;;3.55;2.95;;;;;;;;;;1876841;75;21004;-49
2021/09/12 09:39:13;;;;;;;3.87;3.47;;;;;;;;;;1882194;76;21110;-49
2021/09/12 09:41:41;;;;;;;3.40;3.10;;;;;;;;;;1882164;75;21106;-48
2021/09/12 09:44:11;;;;;;;8.63;5.10;;;;;;;;;;1882298;76;21135;-50
2021/09/12 09:46:41;;;;;;;10.05;4.72;;;;;;;;;;1881881;76;21032;-47
2021/09/12 09:49:23;;;;;;;26.33;18.05;;;;;;;;;;1882333;76;21020;-50
2021/09/12 09:51:56;;;;;;;5.53;3.87;;;;;;;;;;1882289;75;21028;-46
2021/09/12 09:54:26;;;;;;;5.53;4.12;;;;;;;;;;1881584;76;21032;-46
2021/09/12 09:56:56;;;;;;;4.33;3.83;;;;;;;;;;1875759;75;21338;-47
2021/09/12 09:59:25;;;;;;;4.67;3.50;;;;;;;;;;1872723;77;21029;-50
2021/09/12 10:01:55;;;;;;;4.78;3.65;;;;;;;;;;1872787;77;21033;-46
2021/09/12 10:04:30;;;;;;;10.10;4.72;;;;;;;;;;1872782;76;21561;-48
2021/09/12 10:06:56;;;;;;;5.10;3.45;;;;;;;;;;1871633;76;21108;-49
2021/09/12 10:09:25;;;;;;;5.35;4.37;;;;;;;;;;1872831;76;21009;-48
2021/09/12 10:11:55;;;;;;;4.53;4.00;;;;;;;;;;1872751;77;21098;-46
2021/09/12 10:14:25;;;;;;;7.97;4.47;;;;;;;;;;1872694;77;21100;-47
2021/09/12 10:16:54;;;;;;;6.78;4.58;;;;;;;;;;1872614;76;21064;-49
2021/09/12 10:19:33;;;;;;;5.28;4.03;;;;;;;;;;1872780;77;21037;-49
2021/09/12 10:22:02;;;;;;;4.55;4.05;;;;;;;;;;1872868;77;21036;-48
2021/09/12 10:24:32;;;;;;;10.08;4.10;;;;;;;;;;1872685;77;21041;-50
2021/09/12 10:27:02;;;;;;;4.90;4.40;;;;;;;;;;1872620;76;21029;-47
2021/09/12 10:29:51;;;;;;;3.70;3.40;;;;;;;;;;1870916;77;21087;-50
2021/09/12 10:32:35;;;;;;;5.75;4.00;;;;;;;;;;1872395;76;21510;-50
2021/09/12 10:35:23;;;;;;;8.13;4.70;;;;;;;;;;1872709;77;21056;-49
2021/09/12 10:37:56;;;;;;;5.15;3.98;;;;;;;;;;1872832;77;21056;-50
2021/09/12 10:40:25;;;;;;;5.95;4.62;;;;;;;;;;1872683;75;21052;-49
2021/09/12 10:42:54;;;;;;;8.90;4.75;;;;;;;;;;1872633;77;21111;-50
2021/09/12 10:45:27;;;;;;;9.95;4.22;;;;;;;;;;1872667;77;21045;-47
2021/09/12 10:47:57;;;;;;;5.08;4.08;;;;;;;;;;1872693;77;21525;-50
2021/09/12 10:50:39;;;;;;;4.92;4.40;;;;;;;;;;1870798;75;21118;-49
2021/09/12 10:53:08;;;;;;;5.75;3.70;;;;;;;;;;1872754;76;21091;-48
2021/09/12 10:55:54;;;;;;;8.33;4.58;;;;;;;;;;1872759;77;21092;-47
2021/09/12 10:58:23;;;;;;;5.00;3.87;;;;;;;;;;1872725;77;21049;-47
2021/09/12 11:00:52;;;;;;;6.83;4.58;;;;;;;;;;1872723;76;21076;-48
2021/09/12 11:03:21;;;;;;;3.77;3.37;;;;;;;;;;1872726;77;21082;-47
2021/09/12 11:05:50;;;;;;;4.17;3.40;;;;;;;;;;1872657;77;21028;-46
2021/09/12 11:08:19;;;;;;;6.08;3.95;;;;;;;;;;1872717;77;21140;-48
2021/09/12 11:10:50;;;;;;;4.97;3.90;;;;;;;;;;1872745;77;21115;-49
2021/09/12 11:13:22;;;;;;;6.08;3.75;;;;;;;;;;1872650;76;21475;-49
2021/09/12 11:15:55;;;;;;;3.85;3.42;;;;;;;;;;1872339;76;21033;-47
2021/09/12 11:18:24;;;;;;;3.90;3.60;;;;;;;;;;1872073;76;21025;-50
2021/09/12 11:20:52;;;;;;;5.47;3.40;;;;;;;;;;1872770;77;21040;-48
2021/09/12 11:23:28;;;;;;;6.75;3.55;;;;;;;;;;1872790;76;21009;-49
2021/09/12 11:25:57;;;;;;;10.05;5.05;;;;;;;;;;1872617;77;21068;-51
2021/09/12 11:28:30;;;;;;;4.25;3.85;;;;;;;;;;1872618;75;21021;-48
2021/09/12 11:30:59;;;;;;;5.22;3.87;;;;;;;;;;1872670;77;21004;-48
2021/09/12 11:33:46;;;;;;;3.75;3.35;;;;;;;;;;1872820;75;21032;-49
2021/09/12 11:36:15;;;;;;;9.63;5.85;;;;;;;;;;1872684;77;21048;-47
2021/09/12 11:38:45;;;;;;;5.70;3.22;;;;;;;;;;1872695;77;21053;-49
2021/09/12 11:41:15;;;;;;;5.62;3.60;;;;;;;;;;1872131;76;21034;-50
2021/09/12 11:43:45;;;;;;;4.10;3.50;;;;;;;;;;1872383;76;21032;-51
2021/09/12 11:46:14;;;;;;;3.62;3.33;;;;;;;;;;1872164;75;21029;-48
2021/09/12 11:48:45;;;;;;;4.90;3.50;;;;;;;;;;1872694;77;21044;-48
2021/09/12 11:51:13;;;;;;;4.67;3.58;;;;;;;;;;1872060;75;21064;-49
2021/09/12 11:53:42;;;;;;;4.03;3.15;;;;;;;;;;1872722;77;21048;-50
2021/09/12 11:56:11;;;;;;;3.55;3.20;;;;;;;;;;1872939;76;21044;-47
2021/09/12 11:58:41;;;;;;;6.03;3.77;;;;;;;;;;1882313;76;21029;-50
2021/09/12 12:01:11;;;;;;;3.92;3.37;;;;;;;;;;1882237;76;21537;-50
2021/09/12 12:03:40;;;;;;;4.97;3.62;;;;;;;;;;1882254;76;21086;-48
2021/09/12 12:06:14;;;;;;;6.33;4.42;;;;;;;;;;1882222;76;21174;-47
2021/09/12 12:08:41;;;;;;;5.85;3.72;;;;;;;;;;1881215;76;21037;-50
2021/09/12 12:11:10;;;;;;;8.73;4.08;;;;;;;;;;1872731;75;21057;-46
2021/09/12 12:13:39;;;;;;;5.42;3.65;;;;;;;;;;1882394;76;21036;-48
2021/09/12 12:16:07;;;;;;;4.97;3.22;;;;;;;;;;1882301;76;21494;-48
2021/09/12 12:18:36;;;;;;;5.95;4.12;;;;;;;;;;1882185;76;21043;-48
2021/09/12 12:21:15;;;;;;;5.35;3.20;;;;;;;;;;1882482;76;21032;-46
2021/09/12 12:23:45;;;;;;;4.22;3.20;;;;;;;;;;1882422;75;21098;-47
2021/09/12 12:26:17;;;;;;;3.35;3.08;;;;;;;;;;1882315;75;21032;-48
2021/09/12 12:28:47;;;;;;;4.17;3.20;;;;;;;;;;1882278;76;21401;-47
2021/09/12 12:31:16;;;;;;;3.87;3.50;;;;;;;;;;1881132;76;21071;-46
2021/09/12 12:33:46;;;;;;;8.40;4.03;;;;;;;;;;1882305;75;21040;-50
2021/09/12 12:36:16;;;;;;;4.97;3.47;;;;;;;;;;1882369;76;21024;-47
2021/09/12 12:38:46;;;;;;;4.03;3.20;;;;;;;;;;1882297;76;21000;-47
2021/09/12 12:41:16;;;;;;;5.30;3.45;;;;;;;;;;1882381;76;21110;-50
2021/09/12 12:43:44;;;;;;;5.42;3.12;;;;;;;;;;1882261;76;21066;-47
2021/09/12 12:46:13;;;;;;;3.65;3.35;;;;;;;;;;1882306;76;21040;-47
2021/09/12 12:48:42;;;;;;;13.03;10.45;;;;;;;;;;1882240;76;21044;-49
2021/09/12 12:51:15;;;;;;;5.10;3.70;;;;;;;;;;1882375;75;21030;-48
2021/09/12 12:53:45;;;;;;;4.20;3.52;;;;;;;;;;1882276;76;21486;-47
2021/09/12 12:56:16;;;;;;;3.70;3.15;;;;;;;;;;1881999;76;21060;-48
2021/09/12 12:58:46;;;;;;;3.92;2.90;;;;;;;;;;1873721;75;21123;-48
2021/09/12 13:01:15;;;;;;;3.85;3.15;;;;;;;;;;1872906;77;21028;-48
2021/09/12 13:03:44;;;;;;;3.17;2.85;;;;;;;;;;1872802;77;21045;-48
2021/09/12 13:06:14;;;;;;;4.62;3.27;;;;;;;;;;1872911;77;21037;-47
2021/09/12 13:08:45;;;;;;;5.67;3.12;;;;;;;;;;1872844;75;21087;-49
2021/09/12 13:11:13;;;;;;;3.67;3.27;;;;;;;;;;1873024;76;21537;-48
2021/09/12 13:13:43;;;;;;;3.70;2.92;;;;;;;;;;1872876;76;21037;-47
2021/09/12 13:16:13;;;;;;;10.30;3.72;;;;;;;;;;1872954;77;21061;-47
2021/09/12 13:18:42;;;;;;;6.20;3.60;;;;;;;;;;1872831;76;21024;-48
2021/09/12 13:21:11;;;;;;;5.53;4.17;;;;;;;;;;1872815;76;21095;-50
2021/09/12 13:23:40;;;;;;;4.53;3.05;;;;;;;;;;1872734;76;21095;-48
2021/09/12 13:26:08;;;;;;;7.40;3.77;;;;;;;;;;1872873;77;21052;-51
2021/09/12 13:28:37;;;;;;;6.78;3.60;;;;;;;;;;1872753;76;21084;-47
2021/09/12 13:31:07;;;;;;;4.62;3.12;;;;;;;;;;1872867;77;21119;-47
2021/09/12 13:33:36;;;;;;;5.20;3.35;;;;;;;;;;1872762;76;21037;-51
2021/09/12 13:36:05;;;;;;;7.12;4.08;;;;;;;;;;1872783;75;21098;-49
2021/09/12 13:38:34;;;;;;;6.53;4.00;;;;;;;;;;1872779;77;21107;-47
2021/09/12 13:41:03;;;;;;;7.20;4.65;;;;;;;;;;1872970;77;21041;-47
2021/09/12 13:43:31;;;;;;;3.22;2.92;;;;;;;;;;1872840;77;21098;-49
2021/09/12 13:46:02;;;;;;;5.87;3.58;;;;;;;;;;1872968;77;21185;-47
2021/09/12 13:48:31;;;;;;;3.95;3.25;;;;;;;;;;1872688;76;21067;-47
2021/09/12 13:51:00;;;;;;;3.83;3.40;;;;;;;;;;1872919;76;21049;-51
2021/09/12 13:53:28;;;;;;;4.00;3.60;;;;;;;;;;1872778;75;21150;-48
2021/09/12 13:55:57;;;;;;;7.97;4.37;;;;;;;;;;1872896;77;21076;-51
2021/09/12 13:58:26;;;;;;;6.20;4.22;;;;;;;;;;1872764;77;21186;-51
2021/09/12 14:00:55;;;;;;;5.62;3.83;;;;;;;;;;1872742;77;21033;-49
2021/09/12 14:03:24;;;;;;;10.95;4.97;;;;;;;;;;1872691;77;21087;-50
2021/09/12 14:05:52;;;;;;;17.82;5.60;;;;;;;;;;1872709;77;21037;-49
2021/09/12 14:08:23;;;;;;;5.37;4.45;;;;;;;;;;1872738;77;21028;-47
2021/09/12 14:10:58;;;;;;;11.28;5.70;;;;;;;;;;1872715;75;21001;-48
2021/09/12 14:13:22;;;;;;;6.60;4.20;;;;;;;;;;1871441;76;21470;-48
2021/09/12 14:15:50;;;;;;;10.20;5.00;;;;;;;;;;1872829;76;21033;-47
2021/09/12 14:18:19;;;;;;;6.25;4.40;;;;;;;;;;1872713;77;21037;-48
2021/09/12 14:20:48;;;;;;;5.28;4.08;;;;;;;;;;1872706;77;21050;-48
2021/09/12 14:23:17;;;;;;;5.40;4.10;;;;;;;;;;1872672;77;21155;-47
2021/09/12 14:25:46;;;;;;;8.48;4.83;;;;;;;;;;1872661;75;21105;-49
2021/09/12 14:28:15;;;;;;;6.37;4.20;;;;;;;;;;1872637;76;21017;-50
2021/09/12 14:30:44;;;;;;;7.85;5.17;;;;;;;;;;1872669;76;21044;-51
2021/09/12 14:33:13;;;;;;;9.05;5.53;;;;;;;;;;1872579;75;21106;-49
2021/09/12 14:35:42;;;;;;;7.17;4.50;;;;;;;;;;1872579;77;21048;-49
2021/09/12 14:38:10;;;;;;;6.12;4.42;;;;;;;;;;1872834;77;21041;-49
2021/09/12 14:40:39;;;;;;;4.65;3.90;;;;;;;;;;1872687;76;21103;-48
2021/09/12 14:43:09;;;;;;;7.08;3.85;;;;;;;;;;1872861;76;21033;-50
2021/09/12 14:45:38;;;;;;;8.48;5.42;;;;;;;;;;1872760;76;21143;-49
2021/09/12 14:48:06;;;;;;;8.48;5.20;;;;;;;;;;1872707;76;21025;-49
2021/09/12 14:50:35;;;;;;;9.33;5.17;;;;;;;;;;1872856;77;21033;-49
2021/09/12 14:53:04;;;;;;;7.17;4.25;;;;;;;;;;1872736;77;21052;-50